sensor_id;sensor_type;location;lat;lon;timestamp;pressure;altitude;pressure_sealevel;temperature;humidity
46007;BME280;31738;50.188;8.524;2023-02-28T00:02:17;100085.13;;;2.13;64.14
46007;BME280;31738;50.188;8.524;2023-02-28T00:04:43;100087.50;;;2.08;64.36
46007;BME280;31738;50.188;8.524;2023-02-28T00:07:09;100088.75;;;2.12;64.18
46007;BME280;31738;50.188;8.524;2023-02-28T00:09:34;100087.78;;;2.13;64.22
46007;BME280;31738;50.188;8.524;2023-02-28T00:12:00;100085.31;;;2.11;64.39
46007;BME280;31738;50.188;8.524;2023-02-28T00:14:30;100078.13;;;2.05;64.23
46007;BME280;31738;50.188;8.524;2023-02-28T00:16:55;100081.13;;;2.02;64.40
46007;BME280;31738;50.188;8.524;2023-02-28T00:19:20;100082.75;;;2.03;64.44
46007;BME280;31738;50.188;8.524;2023-02-28T00:21:46;100081.31;;;2.01;64.47
46007;BME280;31738;50.188;8.524;2023-02-28T00:24:11;100079.84;;;1.98;64.68
46007;BME280;31738;50.188;8.524;2023-02-28T00:26:37;100073.94;;;1.96;65.15
46007;BME280;31738;50.188;8.524;2023-02-28T00:29:02;100078.78;;;1.93;64.91
46007;BME280;31738;50.188;8.524;2023-02-28T00:31:28;100079.97;;;1.90;64.95
46007;BME280;31738;50.188;8.524;2023-02-28T00:33:53;100077.75;;;1.94;65.21
46007;BME280;31738;50.188;8.524;2023-02-28T00:36:20;100078.78;;;1.93;65.50
46007;BME280;31738;50.188;8.524;2023-02-28T00:38:45;100075.13;;;1.94;65.48
46007;BME280;31738;50.188;8.524;2023-02-28T00:41:10;100077.66;;;1.87;66.11
46007;BME280;31738;50.188;8.524;2023-02-28T00:43:38;100074.50;;;1.92;65.63
46007;BME280;31738;50.188;8.524;2023-02-28T00:46:04;100071.22;;;1.90;65.97
46007;BME280;31738;50.188;8.524;2023-02-28T00:48:30;100068.94;;;1.87;66.25
46007;BME280;31738;50.188;8.524;2023-02-28T00:50:56;100070.38;;;1.89;66.42
46007;BME280;31738;50.188;8.524;2023-02-28T00:53:21;100061.97;;;1.86;66.50
46007;BME280;31738;50.188;8.524;2023-02-28T00:55:48;100062.81;;;1.86;66.65
46007;BME280;31738;50.188;8.524;2023-02-28T00:58:14;100066.00;;;1.82;66.77
46007;BME280;31738;50.188;8.524;2023-02-28T01:00:39;100064.38;;;1.81;66.88
46007;BME280;31738;50.188;8.524;2023-02-28T01:03:05;100056.00;;;1.77;67.45
46007;BME280;31738;50.188;8.524;2023-02-28T01:05:30;100059.38;;;1.71;67.57
46007;BME280;31738;50.188;8.524;2023-02-28T01:07:55;100058.16;;;1.73;67.72
46007;BME280;31738;50.188;8.524;2023-02-28T01:10:22;100055.34;;;1.75;67.93
46007;BME280;31738;50.188;8.524;2023-02-28T01:12:48;100046.97;;;1.71;67.98
46007;BME280;31738;50.188;8.524;2023-02-28T01:15:14;100056.53;;;1.72;68.00
46007;BME280;31738;50.188;8.524;2023-02-28T01:17:40;100048.44;;;1.74;67.84
46007;BME280;31738;50.188;8.524;2023-02-28T01:20:06;100043.03;;;1.67;68.27
46007;BME280;31738;50.188;8.524;2023-02-28T01:22:31;100044.16;;;1.58;69.25
46007;BME280;31738;50.188;8.524;2023-02-28T01:24:57;100034.88;;;1.62;68.51
46007;BME280;31738;50.188;8.524;2023-02-28T01:27:22;100031.56;;;1.60;69.04
46007;BME280;31738;50.188;8.524;2023-02-28T01:29:48;100030.75;;;1.60;69.07
46007;BME280;31738;50.188;8.524;2023-02-28T01:32:14;100033.22;;;1.61;68.69
46007;BME280;31738;50.188;8.524;2023-02-28T01:34:40;100036.22;;;1.58;68.90
46007;BME280;31738;50.188;8.524;2023-02-28T01:37:05;100028.94;;;1.60;68.40
46007;BME280;31738;50.188;8.524;2023-02-28T01:39:31;100027.47;;;1.58;69.27
46007;BME280;31738;50.188;8.524;2023-02-28T01:41:56;100024.00;;;1.57;69.24
46007;BME280;31738;50.188;8.524;2023-02-28T01:44:55;100014.78;;;1.53;69.41
46007;BME280;31738;50.188;8.524;2023-02-28T01:47:20;100022.72;;;1.53;68.88
46007;BME280;31738;50.188;8.524;2023-02-28T01:49:47;100018.44;;;1.52;69.37
46007;BME280;31738;50.188;8.524;2023-02-28T01:52:14;100015.63;;;1.54;68.95
46007;BME280;31738;50.188;8.524;2023-02-28T01:54:51;100011.16;;;1.40;69.68
46007;BME280;31738;50.188;8.524;2023-02-28T01:57:20;100010.63;;;1.44;69.21
46007;BME280;31738;50.188;8.524;2023-02-28T02:00:00;100006.53;;;1.42;68.79
46007;BME280;31738;50.188;8.524;2023-02-28T02:02:39;100002.81;;;1.36;68.89
46007;BME280;31738;50.188;8.524;2023-02-28T02:05:14;100002.81;;;1.36;68.74
46007;BME280;31738;50.188;8.524;2023-02-28T02:07:42;100008.88;;;1.37;68.84
46007;BME280;31738;50.188;8.524;2023-02-28T02:10:31;99999.88;;;1.31;68.95
46007;BME280;31738;50.188;8.524;2023-02-28T02:13:08;100007.63;;;1.33;68.49
46007;BME280;31738;50.188;8.524;2023-02-28T02:18:39;99994.31;;;1.26;68.74
46007;BME280;31738;50.188;8.524;2023-02-28T02:37:13;100006.25;;;0.93;68.49
46007;BME280;31738;50.188;8.524;2023-02-28T02:40:02;100007.50;;;0.97;68.86
46007;BME280;31738;50.188;8.524;2023-02-28T02:42:55;100010.16;;;0.97;68.41
46007;BME280;31738;50.188;8.524;2023-02-28T02:48:02;99999.88;;;1.02;68.21
46007;BME280;31738;50.188;8.524;2023-02-28T02:50:54;100000.06;;;1.01;68.67
46007;BME280;31738;50.188;8.524;2023-02-28T02:53:19;99999.41;;;0.99;68.31
46007;BME280;31738;50.188;8.524;2023-02-28T02:55:48;100006.88;;;0.95;68.94
46007;BME280;31738;50.188;8.524;2023-02-28T02:58:22;100005.53;;;0.99;68.78
46007;BME280;31738;50.188;8.524;2023-02-28T03:00:53;100005.06;;;0.96;68.80
46007;BME280;31738;50.188;8.524;2023-02-28T03:03:21;100001.88;;;1.00;68.36
46007;BME280;31738;50.188;8.524;2023-02-28T03:05:55;100006.97;;;1.02;68.35
46007;BME280;31738;50.188;8.524;2023-02-28T03:08:22;100007.16;;;1.00;68.43
46007;BME280;31738;50.188;8.524;2023-02-28T03:10:55;100002.06;;;0.99;69.21
46007;BME280;31738;50.188;8.524;2023-02-28T03:14:09;100000.13;;;0.93;68.68
46007;BME280;31738;50.188;8.524;2023-02-28T03:19:37;100008.59;;;0.88;68.45
46007;BME280;31738;50.188;8.524;2023-02-28T03:24:56;99997.56;;;0.85;68.70
46007;BME280;31738;50.188;8.524;2023-02-28T03:27:57;100002.84;;;0.85;68.26
46007;BME280;31738;50.188;8.524;2023-02-28T03:31:48;100004.69;;;0.84;68.68
46007;BME280;31738;50.188;8.524;2023-02-28T03:33:57;99998.75;;;0.82;68.12
46007;BME280;31738;50.188;8.524;2023-02-28T03:36:38;100000.75;;;0.80;68.61
46007;BME280;31738;50.188;8.524;2023-02-28T03:39:39;100004.41;;;0.79;68.54
46007;BME280;31738;50.188;8.524;2023-02-28T03:42:13;99999.91;;;0.80;68.30
46007;BME280;31738;50.188;8.524;2023-02-28T03:44:45;99999.91;;;0.80;68.68
46007;BME280;31738;50.188;8.524;2023-02-28T03:50:22;100001.94;;;0.78;68.74
46007;BME280;31738;50.188;8.524;2023-02-28T03:52:52;100003.56;;;0.79;68.82
46007;BME280;31738;50.188;8.524;2023-02-28T03:55:26;100004.56;;;0.78;68.62
46007;BME280;31738;50.188;8.524;2023-02-28T04:00:21;100006.22;;;0.79;68.50
46007;BME280;31738;50.188;8.524;2023-02-28T04:02:49;100012.03;;;0.74;68.65
46007;BME280;31738;50.188;8.524;2023-02-28T04:05:19;100009.56;;;0.73;68.44
46007;BME280;31738;50.188;8.524;2023-02-28T04:07:44;100010.75;;;0.70;68.43
46007;BME280;31738;50.188;8.524;2023-02-28T04:10:11;100009.56;;;0.73;68.96
46007;BME280;31738;50.188;8.524;2023-02-28T04:12:37;100005.47;;;0.70;68.72
46007;BME280;31738;50.188;8.524;2023-02-28T04:15:05;100020.97;;;0.73;68.48
46007;BME280;31738;50.188;8.524;2023-02-28T04:17:53;100016.03;;;0.70;68.24
46007;BME280;31738;50.188;8.524;2023-02-28T04:20:18;100012.38;;;0.71;68.06
46007;BME280;31738;50.188;8.524;2023-02-28T04:22:47;100021.31;;;0.70;68.15
46007;BME280;31738;50.188;8.524;2023-02-28T04:25:12;100016.03;;;0.70;67.87
46007;BME280;31738;50.188;8.524;2023-02-28T04:27:38;100013.75;;;0.67;68.10
46007;BME280;31738;50.188;8.524;2023-02-28T04:30:03;100016.41;;;0.67;68.41
46007;BME280;31738;50.188;8.524;2023-02-28T04:32:29;100021.69;;;0.67;68.02
46007;BME280;31738;50.188;8.524;2023-02-28T04:34:55;100010.09;;;0.68;68.43
46007;BME280;31738;50.188;8.524;2023-02-28T04:37:20;100013.09;;;0.65;68.11
46007;BME280;31738;50.188;8.524;2023-02-28T04:39:46;100017.72;;;0.63;68.12
46007;BME280;31738;50.188;8.524;2023-02-28T04:42:12;100016.47;;;0.59;67.98
46007;BME280;31738;50.188;8.524;2023-02-28T04:44:37;100017.91;;;0.62;67.94
46007;BME280;31738;50.188;8.524;2023-02-28T04:47:03;100019.56;;;0.63;67.84
46007;BME280;31738;50.188;8.524;2023-02-28T04:49:28;100011.47;;;0.64;67.65
46007;BME280;31738;50.188;8.524;2023-02-28T04:51:54;100020.38;;;0.63;67.75
46007;BME280;31738;50.188;8.524;2023-02-28T04:54:20;100003.72;;;0.63;67.87
46007;BME280;31738;50.188;8.524;2023-02-28T04:56:45;100001.28;;;0.61;67.79
46007;BME280;31738;50.188;8.524;2023-02-28T04:59:11;100007.72;;;0.59;67.69
46007;BME280;31738;50.188;8.524;2023-02-28T05:01:36;100011.72;;;0.55;67.68
46007;BME280;31738;50.188;8.524;2023-02-28T05:04:03;100021.09;;;0.57;67.88
46007;BME280;31738;50.188;8.524;2023-02-28T05:06:31;100020.72;;;0.60;67.46
46007;BME280;31738;50.188;8.524;2023-02-28T05:08:57;100020.38;;;0.63;67.57
46007;BME280;31738;50.188;8.524;2023-02-28T05:11:27;100023.66;;;0.65;67.15
46007;BME280;31738;50.188;8.524;2023-02-28T05:13:54;100027.94;;;0.66;67.04
46007;BME280;31738;50.188;8.524;2023-02-28T05:16:20;100029.59;;;0.67;66.81
46007;BME280;31738;50.188;8.524;2023-02-28T05:18:45;100029.41;;;0.69;66.82
46007;BME280;31738;50.188;8.524;2023-02-28T05:23:50;100031.53;;;0.73;66.84
46007;BME280;31738;50.188;8.524;2023-02-28T05:26:16;100039.25;;;0.75;66.86
46007;BME280;31738;50.188;8.524;2023-02-28T05:28:42;100040.72;;;0.77;66.65
46007;BME280;31738;50.188;8.524;2023-02-28T05:31:10;100039.69;;;0.78;66.89
46007;BME280;31738;50.188;8.524;2023-02-28T05:33:36;100039.06;;;0.76;66.75
46007;BME280;31738;50.188;8.524;2023-02-28T05:36:02;100042.16;;;0.80;66.46
46007;BME280;31738;50.188;8.524;2023-02-28T05:38:27;100047.91;;;0.83;66.46
46007;BME280;31738;50.188;8.524;2023-02-28T05:40:52;100055.53;;;0.78;66.73
46007;BME280;31738;50.188;8.524;2023-02-28T05:43:18;100042.28;;;0.86;66.19
46007;BME280;31738;50.188;8.524;2023-02-28T05:45:44;100045.09;;;0.85;66.40
46007;BME280;31738;50.188;8.524;2023-02-28T05:48:09;100042.28;;;0.86;66.67
46007;BME280;31738;50.188;8.524;2023-02-28T05:50:35;100056.13;;;0.88;66.27
46007;BME280;31738;50.188;8.524;2023-02-28T05:53:01;100050.50;;;0.91;66.24
46007;BME280;31738;50.188;8.524;2023-02-28T05:55:26;100058.22;;;0.93;66.39
46007;BME280;31738;50.188;8.524;2023-02-28T05:57:52;100046.03;;;0.92;66.40
46007;BME280;31738;50.188;8.524;2023-02-28T06:00:18;100055.22;;;0.81;66.44
46007;BME280;31738;50.188;8.524;2023-02-28T06:02:43;100065.88;;;0.88;66.23
46007;BME280;31738;50.188;8.524;2023-02-28T06:05:17;100061.41;;;0.88;66.13
46007;BME280;31738;50.188;8.524;2023-02-28T06:07:43;100063.03;;;0.89;66.42
46007;BME280;31738;50.188;8.524;2023-02-28T06:10:10;100068.31;;;0.89;66.30
46007;BME280;31738;50.188;8.524;2023-02-28T06:12:36;100076.44;;;0.88;66.36
46007;BME280;31738;50.188;8.524;2023-02-28T06:15:02;100062.41;;;0.87;66.88
46007;BME280;31738;50.188;8.524;2023-02-28T06:17:28;100050.84;;;0.88;66.45
46007;BME280;31738;50.188;8.524;2023-02-28T06:19:53;100060.13;;;0.84;66.68
46007;BME280;31738;50.188;8.524;2023-02-28T06:22:19;100062.97;;;0.83;67.02
46007;BME280;31738;50.188;8.524;2023-02-28T06:24:44;100061.13;;;0.83;66.64
46007;BME280;31738;50.188;8.524;2023-02-28T06:27:10;100064.13;;;0.80;66.66
46007;BME280;31738;50.188;8.524;2023-02-28T06:29:38;100073.03;;;0.79;66.16
46007;BME280;31738;50.188;8.524;2023-02-28T06:32:07;100071.75;;;0.75;66.52
46007;BME280;31738;50.188;8.524;2023-02-28T06:34:32;100065.31;;;0.78;66.05
46007;BME280;31738;50.188;8.524;2023-02-28T06:36:59;100067.41;;;0.82;66.01
46007;BME280;31738;50.188;8.524;2023-02-28T06:39:28;100082.25;;;0.83;65.84
46007;BME280;31738;50.188;8.524;2023-02-28T06:41:54;100075.97;;;0.84;65.20
46007;BME280;31738;50.188;8.524;2023-02-28T06:44:19;100088.47;;;0.90;64.84
46007;BME280;31738;50.188;8.524;2023-02-28T06:46:45;100084.53;;;0.86;64.13
46007;BME280;31738;50.188;8.524;2023-02-28T06:49:11;100085.47;;;0.93;64.27
46007;BME280;31738;50.188;8.524;2023-02-28T06:51:39;100094.66;;;0.97;63.63
46007;BME280;31738;50.188;8.524;2023-02-28T06:54:05;100100.97;;;0.96;63.00
46007;BME280;31738;50.188;8.524;2023-02-28T06:56:35;100104.22;;;0.98;63.23
46007;BME280;31738;50.188;8.524;2023-02-28T06:59:00;100112.25;;;0.90;62.39
46007;BME280;31738;50.188;8.524;2023-02-28T07:01:26;100118.91;;;1.01;62.23
46007;BME280;31738;50.188;8.524;2023-02-28T07:03:53;100123.47;;;1.07;62.70
46007;BME280;31738;50.188;8.524;2023-02-28T07:06:20;100129.88;;;1.12;62.42
46007;BME280;31738;50.188;8.524;2023-02-28T07:08:48;100132.16;;;1.15;62.00
46007;BME280;31738;50.188;8.524;2023-02-28T07:11:14;100132.88;;;1.09;61.77
46007;BME280;31738;50.188;8.524;2023-02-28T07:13:39;100135.09;;;1.20;61.95
46007;BME280;31738;50.188;8.524;2023-02-28T07:16:07;100134.72;;;1.23;61.31
46007;BME280;31738;50.188;8.524;2023-02-28T07:18:34;100136.66;;;1.29;61.59
46007;BME280;31738;50.188;8.524;2023-02-28T07:21:02;100146.50;;;1.35;61.35
46007;BME280;31738;50.188;8.524;2023-02-28T07:23:28;100146.31;;;1.37;61.79
46007;BME280;31738;50.188;8.524;2023-02-28T07:25:53;100154.72;;;1.40;61.75
46007;BME280;31738;50.188;8.524;2023-02-28T07:28:18;100154.78;;;1.32;61.66
46007;BME280;31738;50.188;8.524;2023-02-28T07:30:44;100152.53;;;1.44;61.87
46007;BME280;31738;50.188;8.524;2023-02-28T07:33:09;100152.38;;;1.45;61.97
46007;BME280;31738;50.188;8.524;2023-02-28T07:35:35;100147.44;;;1.42;62.50
46007;BME280;31738;50.188;8.524;2023-02-28T07:38:01;100155.09;;;1.52;62.01
46007;BME280;31738;50.188;8.524;2023-02-28T07:40:28;100146.34;;;1.51;62.17
46007;BME280;31738;50.188;8.524;2023-02-28T07:42:53;100140.06;;;1.52;62.39
46007;BME280;31738;50.188;8.524;2023-02-28T07:45:19;100146.25;;;1.59;62.14
46007;BME280;31738;50.188;8.524;2023-02-28T07:47:45;100148.88;;;1.59;62.59
46007;BME280;31738;50.188;8.524;2023-02-28T07:50:12;100156.50;;;1.62;62.43
46007;BME280;31738;50.188;8.524;2023-02-28T07:52:38;100159.03;;;1.70;62.24
46007;BME280;31738;50.188;8.524;2023-02-28T07:55:05;100147.28;;;1.73;61.93
46007;BME280;31738;50.188;8.524;2023-02-28T07:57:30;100160.75;;;1.78;62.20
46007;BME280;31738;50.188;8.524;2023-02-28T07:59:55;100159.59;;;1.81;62.16
46007;BME280;31738;50.188;8.524;2023-02-28T08:02:21;100159.22;;;1.84;62.17
46007;BME280;31738;50.188;8.524;2023-02-28T08:04:47;100156.84;;;1.89;62.01
46007;BME280;31738;50.188;8.524;2023-02-28T08:07:14;100158.50;;;1.90;61.47
46007;BME280;31738;50.188;8.524;2023-02-28T08:09:40;100160.03;;;1.99;61.35
46007;BME280;31738;50.188;8.524;2023-02-28T08:12:07;100158.41;;;1.98;61.44
46007;BME280;31738;50.188;8.524;2023-02-28T08:14:33;100160.16;;;2.05;61.08
46007;BME280;31738;50.188;8.524;2023-02-28T08:16:59;100170.06;;;2.03;60.70
46007;BME280;31738;50.188;8.524;2023-02-28T08:19:24;100153.66;;;2.08;60.80
46007;BME280;31738;50.188;8.524;2023-02-28T08:21:50;100170.53;;;2.07;60.88
46007;BME280;31738;50.188;8.524;2023-02-28T08:24:15;100166.78;;;2.16;60.39
46007;BME280;31738;50.188;8.524;2023-02-28T08:26:41;100169.91;;;2.19;60.26
46007;BME280;31738;50.188;8.524;2023-02-28T08:29:06;100172.59;;;2.26;60.28
46007;BME280;31738;50.188;8.524;2023-02-28T08:31:32;100163.31;;;2.30;59.62
46007;BME280;31738;50.188;8.524;2023-02-28T08:33:57;100173.25;;;2.28;59.05
46007;BME280;31738;50.188;8.524;2023-02-28T08:36:25;100174.31;;;2.33;59.16
46007;BME280;31738;50.188;8.524;2023-02-28T08:38:51;100173.34;;;2.34;59.10
46007;BME280;31738;50.188;8.524;2023-02-28T08:41:17;100173.34;;;2.34;58.98
46007;BME280;31738;50.188;8.524;2023-02-28T08:43:43;100183.19;;;2.40;59.23
46007;BME280;31738;50.188;8.524;2023-02-28T08:46:11;100181.16;;;2.42;58.48
46007;BME280;31738;50.188;8.524;2023-02-28T08:48:37;100186.91;;;2.46;59.06
46007;BME280;31738;50.188;8.524;2023-02-28T08:51:23;100194.28;;;2.50;58.46
46007;BME280;31738;50.188;8.524;2023-02-28T08:53:57;100190.72;;;2.58;58.91
46007;BME280;31738;50.188;8.524;2023-02-28T08:56:22;100179.56;;;2.62;58.68
46007;BME280;31738;50.188;8.524;2023-02-28T08:58:49;100190.50;;;2.74;58.13
46007;BME280;31738;50.188;8.524;2023-02-28T09:01:21;100198.19;;;2.69;56.63
46007;BME280;31738;50.188;8.524;2023-02-28T09:03:48;100204.75;;;2.73;57.06
46007;BME280;31738;50.188;8.524;2023-02-28T09:06:14;100191.00;;;2.84;57.08
46007;BME280;31738;50.188;8.524;2023-02-28T09:08:40;100206.16;;;2.90;56.31
46007;BME280;31738;50.188;8.524;2023-02-28T09:11:06;100213.72;;;2.93;55.39
46007;BME280;31738;50.188;8.524;2023-02-28T09:13:32;100212.75;;;3.15;55.68
46007;BME280;31738;50.188;8.524;2023-02-28T09:15:59;100214.25;;;3.24;55.00
46007;BME280;31738;50.188;8.524;2023-02-28T09:18:26;100214.56;;;3.35;54.80
46007;BME280;31738;50.188;8.524;2023-02-28T09:20:51;100220.09;;;3.40;53.80
46007;BME280;31738;50.188;8.524;2023-02-28T09:23:18;100230.13;;;3.45;53.45
46007;BME280;31738;50.188;8.524;2023-02-28T09:25:51;100229.63;;;3.56;52.89
46007;BME280;31738;50.188;8.524;2023-02-28T09:28:19;100227.28;;;3.68;53.15
46007;BME280;31738;50.188;8.524;2023-02-28T09:30:48;100231.09;;;3.86;52.84
46007;BME280;31738;50.188;8.524;2023-02-28T09:33:14;100236.28;;;4.01;52.47
46007;BME280;31738;50.188;8.524;2023-02-28T09:35:40;100239.00;;;4.07;52.15
46007;BME280;31738;50.188;8.524;2023-02-28T09:38:06;100227.25;;;4.23;51.82
46007;BME280;31738;50.188;8.524;2023-02-28T09:40:37;100238.97;;;4.35;51.64
46007;BME280;31738;50.188;8.524;2023-02-28T09:43:04;100242.06;;;4.38;51.74
46007;BME280;31738;50.188;8.524;2023-02-28T09:45:35;100250.22;;;4.43;51.19
46007;BME280;31738;50.188;8.524;2023-02-28T09:48:06;100250.22;;;4.43;50.93
46007;BME280;31738;50.188;8.524;2023-02-28T09:50:43;100277.72;;;4.29;49.20
46007;BME280;31738;50.188;8.524;2023-02-28T09:53:26;100283.72;;;4.38;49.18
46007;BME280;31738;50.188;8.524;2023-02-28T10:04:53;100278.56;;;4.64;48.78
46007;BME280;31738;50.188;8.524;2023-02-28T10:10:44;100283.69;;;4.65;49.40
46007;BME280;31738;50.188;8.524;2023-02-28T10:13:33;100289.22;;;4.70;48.84
46007;BME280;31738;50.188;8.524;2023-02-28T10:16:07;100298.41;;;4.68;48.88
46007;BME280;31738;50.188;8.524;2023-02-28T10:18:41;100290.22;;;4.69;48.61
46007;BME280;31738;50.188;8.524;2023-02-28T10:21:17;100295.81;;;4.81;49.09
46007;BME280;31738;50.188;8.524;2023-02-28T10:23:45;100293.41;;;4.92;48.97
46007;BME280;31738;50.188;8.524;2023-02-28T10:26:14;100296.13;;;5.05;49.07
46007;BME280;31738;50.188;8.524;2023-02-28T10:28:44;100302.72;;;5.29;48.70
46007;BME280;31738;50.188;8.524;2023-02-28T10:31:18;100296.41;;;5.43;47.79
46007;BME280;31738;50.188;8.524;2023-02-28T10:33:44;100300.53;;;5.46;47.81
46007;BME280;31738;50.188;8.524;2023-02-28T10:36:16;100319.69;;;5.21;47.75
46007;BME280;31738;50.188;8.524;2023-02-28T10:38:42;100319.19;;;4.98;47.84
46007;BME280;31738;50.188;8.524;2023-02-28T10:41:09;100317.88;;;4.81;49.06
46007;BME280;31738;50.188;8.524;2023-02-28T10:43:37;100315.41;;;4.73;49.19
46007;BME280;31738;50.188;8.524;2023-02-28T10:48:47;100339.06;;;4.34;48.35
46007;BME280;31738;50.188;8.524;2023-02-28T10:51:18;100338.25;;;4.34;48.88
46007;BME280;31738;50.188;8.524;2023-02-28T10:53:49;100330.09;;;4.35;48.79
46007;BME280;31738;50.188;8.524;2023-02-28T10:56:20;100328.81;;;4.31;48.30
46007;BME280;31738;50.188;8.524;2023-02-28T10:59:02;100327.06;;;4.38;48.93
46007;BME280;31738;50.188;8.524;2023-02-28T11:03:57;100326.47;;;4.83;48.59
46007;BME280;31738;50.188;8.524;2023-02-28T11:06:29;100321.25;;;4.96;48.12
46007;BME280;31738;50.188;8.524;2023-02-28T11:08:57;100310.06;;;5.20;47.72
46007;BME280;31738;50.188;8.524;2023-02-28T11:11:26;100318.28;;;5.32;46.50
46007;BME280;31738;50.188;8.524;2023-02-28T11:13:54;100316.44;;;5.32;46.92
46007;BME280;31738;50.188;8.524;2023-02-28T11:16:21;100315.16;;;5.15;46.93
46007;BME280;31738;50.188;8.524;2023-02-28T11:18:55;100310.28;;;5.32;46.82
46007;BME280;31738;50.188;8.524;2023-02-28T11:21:26;100300.72;;;5.51;46.53
46007;BME280;31738;50.188;8.524;2023-02-28T11:26:43;100306.31;;;5.69;45.95
46007;BME280;31738;50.188;8.524;2023-02-28T11:29:47;100295.28;;;5.85;45.84
46007;BME280;31738;50.188;8.524;2023-02-28T11:32:11;100312.91;;;5.99;46.20
46007;BME280;31738;50.188;8.524;2023-02-28T11:34:38;100306.34;;;6.08;45.14
46007;BME280;31738;50.188;8.524;2023-02-28T11:37:09;100300.59;;;6.24;45.16
46007;BME280;31738;50.188;8.524;2023-02-28T11:39:36;100298.53;;;6.39;45.83
46007;BME280;31738;50.188;8.524;2023-02-28T11:44:45;100288.22;;;6.55;45.04
46007;BME280;31738;50.188;8.524;2023-02-28T11:52:56;100300.50;;;6.76;44.44
46007;BME280;31738;50.188;8.524;2023-02-28T11:55:36;100314.81;;;6.75;42.69
46007;BME280;31738;50.188;8.524;2023-02-28T11:58:25;100309.06;;;6.78;43.69
46007;BME280;31738;50.188;8.524;2023-02-28T12:04:03;100300.31;;;6.58;44.22
46007;BME280;31738;50.188;8.524;2023-02-28T12:06:57;100315.72;;;6.56;43.89
46007;BME280;31738;50.188;8.524;2023-02-28T12:09:43;100308.72;;;6.48;43.95
46007;BME280;31738;50.188;8.524;2023-02-28T12:12:34;100311.63;;;6.34;44.30
46007;BME280;31738;50.188;8.524;2023-02-28T12:20:28;100307.53;;;6.44;44.76
46007;BME280;31738;50.188;8.524;2023-02-28T12:25:43;100309.19;;;6.32;44.78
46007;BME280;31738;50.188;8.524;2023-02-28T12:28:16;100305.94;;;6.24;44.87
46007;BME280;31738;50.188;8.524;2023-02-28T12:30:54;100307.56;;;6.25;45.31
46007;BME280;31738;50.188;8.524;2023-02-28T12:33:24;100299.78;;;6.30;45.55
46007;BME280;31738;50.188;8.524;2023-02-28T12:35:55;100301.41;;;6.37;45.30
46007;BME280;31738;50.188;8.524;2023-02-28T12:38:22;100301.19;;;6.32;44.53
46007;BME280;31738;50.188;8.524;2023-02-28T12:40:57;100289.06;;;6.36;45.43
46007;BME280;31738;50.188;8.524;2023-02-28T12:43:31;100288.28;;;6.36;45.32
46007;BME280;31738;50.188;8.524;2023-02-28T12:46:08;100302.59;;;6.35;44.74
46007;BME280;31738;50.188;8.524;2023-02-28T12:48:41;100297.69;;;6.32;45.22
46007;BME280;31738;50.188;8.524;2023-02-28T12:51:08;100302.22;;;6.25;44.49
46007;BME280;31738;50.188;8.524;2023-02-28T12:56:35;100301.00;;;6.08;44.75
46007;BME280;31738;50.188;8.524;2023-02-28T12:59:48;100287.91;;;6.13;44.73
46007;BME280;31738;50.188;8.524;2023-02-28T13:05:04;100296.06;;;5.92;44.99
46007;BME280;31738;50.188;8.524;2023-02-28T13:10:22;100293.22;;;5.87;44.73
46007;BME280;31738;50.188;8.524;2023-02-28T13:12:50;100293.19;;;5.80;44.05
46007;BME280;31738;50.188;8.524;2023-02-28T13:15:19;100289.53;;;5.88;44.83
46007;BME280;31738;50.188;8.524;2023-02-28T13:17:49;100281.75;;;5.93;45.43
46007;BME280;31738;50.188;8.524;2023-02-28T13:20:27;100288.09;;;5.92;45.41
46007;BME280;31738;50.188;8.524;2023-02-28T13:22:55;100290.34;;;5.82;44.91
46007;BME280;31738;50.188;8.524;2023-02-28T13:27:52;100298.50;;;5.61;44.90
46007;BME280;31738;50.188;8.524;2023-02-28T13:33:24;100281.72;;;5.80;45.28
46007;BME280;31738;50.188;8.524;2023-02-28T13:41:43;100288.88;;;5.73;44.12
46007;BME280;31738;50.188;8.524;2023-02-28T13:57:57;100266.78;;;5.79;45.69
46007;BME280;31738;50.188;8.524;2023-02-28T14:05:44;100258.78;;;5.79;46.10
46007;BME280;31738;50.188;8.524;2023-02-28T14:08:21;100264.34;;;5.84;45.40
46007;BME280;31738;50.188;8.524;2023-02-28T14:10:50;100251.84;;;5.91;45.79
46007;BME280;31738;50.188;8.524;2023-02-28T14:16:01;100276.81;;;5.70;44.49
46007;BME280;31738;50.188;8.524;2023-02-28T14:18:35;100259.84;;;5.91;45.76
46007;BME280;31738;50.188;8.524;2023-02-28T14:21:34;100248.19;;;5.85;46.59
46007;BME280;31738;50.188;8.524;2023-02-28T14:29:53;100249.16;;;5.78;46.28
46007;BME280;31738;50.188;8.524;2023-02-28T14:32:28;100244.06;;;5.76;46.32
46007;BME280;31738;50.188;8.524;2023-02-28T14:37:45;100230.13;;;5.55;46.53
46007;BME280;31738;50.188;8.524;2023-02-28T14:40:33;100243.63;;;5.60;46.53
46007;BME280;31738;50.188;8.524;2023-02-28T14:43:02;100235.84;;;5.52;46.76
46007;BME280;31738;50.188;8.524;2023-02-28T14:45:35;100226.66;;;5.61;46.10
46007;BME280;31738;50.188;8.524;2023-02-28T14:48:03;100240.34;;;5.64;45.99
46007;BME280;31738;50.188;8.524;2023-02-28T14:50:35;100234.44;;;5.62;46.38
46007;BME280;31738;50.188;8.524;2023-02-28T14:53:02;100230.94;;;5.68;46.71
46007;BME280;31738;50.188;8.524;2023-02-28T14:55:30;100229.91;;;5.69;46.59
46007;BME280;31738;50.188;8.524;2023-02-28T14:57:58;100232.56;;;5.76;46.85
46007;BME280;31738;50.188;8.524;2023-02-28T15:00:46;100228.47;;;5.60;45.58
46007;BME280;31738;50.188;8.524;2023-02-28T15:03:31;100227.25;;;5.63;45.98
46007;BME280;31738;50.188;8.524;2023-02-28T15:05:59;100221.53;;;5.53;47.32
46007;BME280;31738;50.188;8.524;2023-02-28T15:08:26;100217.44;;;5.70;47.19
46007;BME280;31738;50.188;8.524;2023-02-28T15:11:00;100222.34;;;5.73;46.30
46007;BME280;31738;50.188;8.524;2023-02-28T15:13:42;100215.97;;;5.74;46.56
46007;BME280;31738;50.188;8.524;2023-02-28T15:16:15;100215.56;;;5.77;46.95
46007;BME280;31738;50.188;8.524;2023-02-28T15:21:25;100217.03;;;5.73;46.82
46007;BME280;31738;50.188;8.524;2023-02-28T15:24:03;100231.94;;;5.48;46.77